createdAt,value
2019-06-27T00:01:49.925Z,42.15
2019-06-27T00:04:19.880Z,40.50
2019-06-27T00:06:49.789Z,38.40
2019-06-27T00:09:20.361Z,24.90
2019-06-27T00:11:50.344Z,19.65
2019-06-27T00:14:20.246Z,17.45
2019-06-27T00:16:50.256Z,19.60
2019-06-27T00:19:20.165Z,35.30
2019-06-27T00:21:50.141Z,37.23
2019-06-27T00:24:20.044Z,17.15
2019-06-27T00:26:57.246Z,12.28
2019-06-27T00:29:21.579Z,25.70
2019-06-27T00:31:51.505Z,17.23
2019-06-27T00:34:21.444Z,11.45
2019-06-27T00:36:51.374Z,11.95
2019-06-27T00:39:21.327Z,9.55
2019-06-27T00:41:50.779Z,29.95
2019-06-27T00:44:20.614Z,10.40
2019-06-27T00:46:50.524Z,10.30
2019-06-27T00:49:20.454Z,14.03
2019-06-27T00:51:50.447Z,10.50
2019-06-27T00:54:20.356Z,12.30
2019-06-27T00:56:50.448Z,12.35
2019-06-27T00:59:20.504Z,9.88
2019-06-27T01:09:36.892Z,10.88
2019-06-27T01:14:48.631Z,12.30
2019-06-27T01:19:53.804Z,11.57
2019-06-27T01:24:59.129Z,10.88
2019-06-27T01:27:30.500Z,15.68
2019-06-27T01:30:00.608Z,10.40
2019-06-27T01:37:42.221Z,12.10
2019-06-27T01:40:12.391Z,9.55
2019-06-27T01:42:42.385Z,9.53
2019-06-27T01:45:30.944Z,9.45
2019-06-27T01:48:00.842Z,9.73
2019-06-27T01:50:30.824Z,14.58
2019-06-27T01:53:00.773Z,12.35
2019-06-27T01:55:30.736Z,11.90
2019-06-27T01:58:00.745Z,10.03
2019-06-27T02:00:30.921Z,10.20
2019-06-27T02:05:36.624Z,8.95
2019-06-27T02:08:10.912Z,10.82
2019-06-27T02:10:41.120Z,15.18
2019-06-27T02:13:16.340Z,14.13
2019-06-27T02:15:46.424Z,9.43
2019-06-27T02:18:16.411Z,10.55
2019-06-27T02:20:46.316Z,11.85
2019-06-27T02:23:16.410Z,12.33
2019-06-27T02:25:46.375Z,10.13
2019-06-27T02:28:16.360Z,9.00
2019-06-27T02:30:46.808Z,13.72
2019-06-27T02:33:16.702Z,11.33
2019-06-27T02:35:46.617Z,11.12
2019-06-27T02:38:16.572Z,9.13
2019-06-27T02:40:46.449Z,9.55
2019-06-27T02:43:16.533Z,11.25
2019-06-27T02:45:46.494Z,9.30
2019-06-27T02:48:16.508Z,10.25
2019-06-27T02:50:46.455Z,8.98
2019-06-27T02:53:16.349Z,9.00
2019-06-27T02:55:46.238Z,8.10
2019-06-27T02:58:29.606Z,8.85
2019-06-27T03:00:47.721Z,9.80
2019-06-27T03:03:17.682Z,9.70
2019-06-27T03:05:47.573Z,9.60
2019-06-27T03:08:17.579Z,9.50
2019-06-27T03:10:47.540Z,12.40
2019-06-27T03:13:17.609Z,10.93
2019-06-27T03:15:47.525Z,9.63
2019-06-27T03:18:17.447Z,11.83
2019-06-27T03:20:47.498Z,7.97
2019-06-27T03:23:17.478Z,8.43
2019-06-27T03:25:47.381Z,8.50
2019-06-27T03:28:17.277Z,7.95
2019-06-27T03:30:47.309Z,8.18
2019-06-27T03:33:17.389Z,10.80
2019-06-27T03:35:47.335Z,14.38
2019-06-27T03:38:17.269Z,12.00
2019-06-27T03:40:47.356Z,11.18
2019-06-27T03:43:17.281Z,9.25
2019-06-27T03:45:47.258Z,10.25
2019-06-27T03:48:17.748Z,9.18
2019-06-27T03:50:47.659Z,10.43
2019-06-27T03:53:17.624Z,10.75
2019-06-27T03:55:47.563Z,8.60
2019-06-27T03:58:17.570Z,7.70
2019-06-27T04:00:47.618Z,13.45
2019-06-27T04:03:17.529Z,8.33
2019-06-27T04:05:47.474Z,7.97
2019-06-27T04:08:17.400Z,9.05
2019-06-27T04:10:47.494Z,7.60
2019-06-27T04:13:17.641Z,12.88
2019-06-27T04:15:47.100Z,8.33
2019-06-27T04:18:16.990Z,8.53
2019-06-27T04:20:46.970Z,9.30
2019-06-27T04:23:16.888Z,7.85
2019-06-27T04:25:46.940Z,11.10
2019-06-27T04:28:17.185Z,7.75
2019-06-27T04:30:47.197Z,8.65
2019-06-27T04:33:17.212Z,9.18
2019-06-27T04:35:47.176Z,9.85
2019-06-27T04:38:17.080Z,13.45
2019-06-27T04:40:46.995Z,14.43
2019-06-27T04:43:16.876Z,7.87
2019-06-27T04:45:46.821Z,13.32
2019-06-27T04:48:16.686Z,9.70
2019-06-27T04:50:46.594Z,12.25
2019-06-27T04:53:16.551Z,16.25
2019-06-27T04:55:46.563Z,13.28
2019-06-27T04:58:16.456Z,14.63
2019-06-27T05:00:46.370Z,15.45
2019-06-27T05:03:16.568Z,9.20
2019-06-27T05:05:46.555Z,9.70
2019-06-27T05:08:16.441Z,12.18
2019-06-27T05:10:46.370Z,10.28
2019-06-27T05:13:16.252Z,13.48
2019-06-27T05:15:46.193Z,9.58
2019-06-27T05:18:16.130Z,11.10
2019-06-27T05:20:46.152Z,12.33
2019-06-27T05:23:16.044Z,8.23
2019-06-27T05:25:45.925Z,6.70
2019-06-27T05:28:15.808Z,7.45
2019-06-27T05:30:45.720Z,7.97
2019-06-27T05:33:15.703Z,10.35
2019-06-27T05:35:45.604Z,14.15
2019-06-27T05:38:15.504Z,7.55
2019-06-27T05:40:45.450Z,11.25
2019-06-27T05:43:15.431Z,8.40
2019-06-27T05:45:45.322Z,8.58
2019-06-27T05:48:15.389Z,8.08
2019-06-27T05:50:45.265Z,10.05
2019-06-27T05:53:15.296Z,9.70
2019-06-27T05:55:45.284Z,7.37
2019-06-27T05:58:15.271Z,8.95
2019-06-27T06:00:45.151Z,12.15
2019-06-27T06:03:15.071Z,11.25
2019-06-27T06:05:44.988Z,7.62
2019-06-27T06:08:14.903Z,10.72
2019-06-27T06:10:44.802Z,8.98
2019-06-27T06:13:14.761Z,9.93
2019-06-27T06:15:44.875Z,8.90
2019-06-27T06:18:15.163Z,10.55
2019-06-27T06:20:45.084Z,8.20
2019-06-27T06:23:15.083Z,9.20
2019-06-27T06:25:45.096Z,7.97
2019-06-27T06:28:15.369Z,8.35
2019-06-27T06:30:45.493Z,11.53
2019-06-27T06:33:15.588Z,9.80
2019-06-27T06:35:45.545Z,8.38
2019-06-27T06:38:15.420Z,6.90
2019-06-27T06:40:45.610Z,7.42
2019-06-27T06:43:16.255Z,9.83
2019-06-27T06:45:46.220Z,7.60
2019-06-27T06:48:16.188Z,11.83
2019-06-27T06:50:52.203Z,11.65
2019-06-27T06:53:22.151Z,5.62
2019-06-27T06:55:52.400Z,9.13
2019-06-27T06:58:22.351Z,5.90
2019-06-27T07:01:01.482Z,5.75
2019-06-27T07:03:23.902Z,5.97
2019-06-27T07:05:53.829Z,13.75
2019-06-27T07:08:23.804Z,8.93
2019-06-27T07:10:53.670Z,6.67
2019-06-27T07:13:23.840Z,9.80
2019-06-27T07:15:53.731Z,9.00
2019-06-27T07:18:23.728Z,12.55
2019-06-27T07:20:53.596Z,6.85
2019-06-27T07:23:23.470Z,11.80
2019-06-27T07:25:53.412Z,7.35
2019-06-27T07:28:23.314Z,8.15
2019-06-27T07:30:53.197Z,9.30
2019-06-27T07:33:23.121Z,7.75
2019-06-27T07:35:53.040Z,8.60
2019-06-27T07:38:22.977Z,10.65
2019-06-27T07:40:52.944Z,8.20
2019-06-27T07:43:22.879Z,10.98
2019-06-27T07:45:52.955Z,8.70
2019-06-27T07:48:22.941Z,11.35
2019-06-27T07:50:52.939Z,9.73
2019-06-27T07:53:22.974Z,8.75
2019-06-27T07:55:52.955Z,9.13
2019-06-27T07:58:22.872Z,11.85
2019-06-27T08:00:52.817Z,11.50
2019-06-27T08:03:22.790Z,8.30
2019-06-27T08:05:52.776Z,9.80
2019-06-27T08:08:22.778Z,7.37
2019-06-27T08:10:52.875Z,7.25
2019-06-27T08:13:23.042Z,9.20
2019-06-27T08:15:52.943Z,7.78
2019-06-27T08:18:22.992Z,11.10
2019-06-27T08:20:52.922Z,8.60
2019-06-27T08:23:22.916Z,9.80
2019-06-27T08:25:52.913Z,10.80
2019-06-27T08:28:22.851Z,8.13
2019-06-27T08:30:52.895Z,10.05
2019-06-27T08:33:22.970Z,9.90
2019-06-27T08:35:53.057Z,10.50
2019-06-27T08:38:23.070Z,11.10
2019-06-27T08:40:53.003Z,8.53
2019-06-27T08:43:22.892Z,13.70
2019-06-27T08:45:53.000Z,8.35
2019-06-27T08:48:23.011Z,4.92
2019-06-27T08:50:53.056Z,7.92
2019-06-27T08:53:23.114Z,6.78
2019-06-27T08:55:53.166Z,8.58
2019-06-27T08:58:23.112Z,5.50
2019-06-27T09:00:53.094Z,8.60
2019-06-27T09:03:23.135Z,6.10
2019-06-27T09:05:53.073Z,12.33
2019-06-27T09:08:23.036Z,6.30
2019-06-27T09:10:52.991Z,8.23
2019-06-27T09:13:23.068Z,9.60
2019-06-27T09:15:52.995Z,7.47
2019-06-27T09:18:22.909Z,5.83
2019-06-27T09:20:52.951Z,3.58
2019-06-27T09:23:23.067Z,5.28
2019-06-27T09:25:53.064Z,7.67
2019-06-27T09:28:22.994Z,7.62
2019-06-27T09:30:52.929Z,4.72
2019-06-27T09:33:22.895Z,11.60
2019-06-27T09:35:52.853Z,6.03
2019-06-27T09:38:22.858Z,6.72
2019-06-27T09:40:52.710Z,7.08
2019-06-27T09:43:22.701Z,4.45
2019-06-27T09:45:52.736Z,6.03
2019-06-27T09:48:22.714Z,8.58
2019-06-27T09:50:52.677Z,4.58
2019-06-27T09:53:22.668Z,7.97
2019-06-27T09:55:52.728Z,11.53
2019-06-27T09:58:22.607Z,4.62
2019-06-27T10:00:52.631Z,4.33
2019-06-27T10:03:22.538Z,4.03
2019-06-27T10:05:52.825Z,6.30
2019-06-27T10:08:22.807Z,10.13
2019-06-27T10:10:52.711Z,4.90
2019-06-27T10:13:22.607Z,4.47
2019-06-27T10:15:52.545Z,3.05
2019-06-27T10:18:22.578Z,3.20
2019-06-27T10:20:52.484Z,3.52
2019-06-27T10:23:22.372Z,3.05
2019-06-27T10:25:52.326Z,8.58
2019-06-27T10:28:22.223Z,3.58
2019-06-27T10:30:52.128Z,6.53
2019-06-27T10:33:22.084Z,4.33
2019-06-27T10:35:52.120Z,4.58
2019-06-27T10:38:22.011Z,5.10
2019-06-27T10:40:51.898Z,3.15
2019-06-27T10:43:21.863Z,4.03
2019-06-27T10:45:51.864Z,7.12
2019-06-27T10:48:21.972Z,5.47
2019-06-27T10:50:54.635Z,13.70
2019-06-27T10:53:23.567Z,10.63
2019-06-27T10:55:53.559Z,14.15
2019-06-27T10:58:23.503Z,5.70
2019-06-27T11:00:53.386Z,6.03
2019-06-27T11:03:23.298Z,6.53
2019-06-27T11:05:53.176Z,7.58
2019-06-27T11:08:23.049Z,30.72
2019-06-27T11:10:53.043Z,15.53
2019-06-27T11:13:23.028Z,8.73
2019-06-27T11:15:52.880Z,10.60
2019-06-27T11:18:22.875Z,6.17
2019-06-27T11:20:53.081Z,9.25
2019-06-27T11:23:23.087Z,6.33
2019-06-27T11:25:53.170Z,8.20
2019-06-27T11:28:23.058Z,5.78
2019-06-27T11:30:53.071Z,3.83
2019-06-27T11:33:32.560Z,9.68
2019-06-27T11:35:54.684Z,9.48
2019-06-27T11:38:24.967Z,13.58
2019-06-27T11:40:55.190Z,13.50
2019-06-27T11:43:25.092Z,6.97
2019-06-27T11:45:54.972Z,3.37
2019-06-27T11:48:24.864Z,6.62
2019-06-27T11:50:54.814Z,5.42
2019-06-27T11:53:24.711Z,4.80
2019-06-27T11:55:54.587Z,3.60
2019-06-27T11:58:24.794Z,13.03
2019-06-27T12:00:54.703Z,5.78
2019-06-27T12:03:24.615Z,3.25
2019-06-27T12:05:54.550Z,6.50
2019-06-27T12:08:24.435Z,9.60
2019-06-27T12:10:54.443Z,10.30
2019-06-27T12:13:24.335Z,81.92
2019-06-27T12:15:54.265Z,19.75
2019-06-27T12:18:24.231Z,23.60
2019-06-27T12:20:54.279Z,30.50
2019-06-27T12:23:24.193Z,9.90
2019-06-27T12:25:54.236Z,20.43
2019-06-27T12:28:24.135Z,6.92
2019-06-27T12:30:54.196Z,18.42
2019-06-27T12:33:24.131Z,18.77
2019-06-27T12:35:54.128Z,23.25
2019-06-27T12:38:25.323Z,7.72
2019-06-27T12:40:55.321Z,29.42
2019-06-27T12:43:25.203Z,9.15
2019-06-27T12:45:55.104Z,3.10
2019-06-27T12:48:25.000Z,19.55
2019-06-27T12:50:55.005Z,17.25
2019-06-27T12:53:25.055Z,3.37
2019-06-27T12:55:54.921Z,6.83
2019-06-27T12:58:24.992Z,14.70
2019-06-27T13:00:54.961Z,13.05
2019-06-27T13:03:24.860Z,8.48
2019-06-27T13:05:54.771Z,5.28
2019-06-27T13:08:24.757Z,4.67
2019-06-27T13:10:54.687Z,12.98
2019-06-27T13:13:24.656Z,16.93
2019-06-27T13:15:54.609Z,3.75
2019-06-27T13:18:24.487Z,10.23
2019-06-27T13:20:58.463Z,8.68
2019-06-27T13:23:25.948Z,4.37
2019-06-27T13:25:55.925Z,4.80
2019-06-27T13:28:25.870Z,9.65
2019-06-27T13:30:55.809Z,7.30
2019-06-27T13:33:25.672Z,7.53
2019-06-27T13:35:55.625Z,11.25
2019-06-27T13:38:25.492Z,5.25
2019-06-27T13:40:55.408Z,5.25
2019-06-27T13:43:25.428Z,7.78
2019-06-27T13:45:55.326Z,2.55
2019-06-27T13:48:25.283Z,6.62
2019-06-27T13:50:57.640Z,10.23
2019-06-27T13:53:26.891Z,8.48
2019-06-27T13:55:56.779Z,5.75
2019-06-27T13:58:26.660Z,4.78
2019-06-27T14:00:56.550Z,7.55
2019-06-27T14:03:26.433Z,4.10
2019-06-27T14:05:56.415Z,10.28
2019-06-27T14:08:26.486Z,2.30
2019-06-27T14:10:56.505Z,6.70
2019-06-27T14:13:26.475Z,5.35
2019-06-27T14:15:56.360Z,3.83
2019-06-27T14:18:26.227Z,4.87
2019-06-27T14:20:56.196Z,2.80
2019-06-27T14:23:26.072Z,4.50
2019-06-27T14:25:56.026Z,4.10
2019-06-27T14:28:25.944Z,3.30
2019-06-27T14:30:55.841Z,2.72
2019-06-27T14:33:25.938Z,2.25
2019-06-27T14:35:55.813Z,2.05
2019-06-27T14:38:25.705Z,4.35
2019-06-27T14:40:55.579Z,2.10
2019-06-27T14:43:25.469Z,3.75
2019-06-27T14:45:55.359Z,5.42
2019-06-27T14:48:25.231Z,3.30
2019-06-27T14:50:55.175Z,4.70
2019-06-27T14:53:25.206Z,3.02
2019-06-27T14:55:55.147Z,2.35
2019-06-27T14:58:25.015Z,3.65
2019-06-27T15:00:55.011Z,3.30
2019-06-27T15:03:25.133Z,3.70
2019-06-27T15:05:54.674Z,104.95
2019-06-27T15:08:24.438Z,152.10
2019-06-27T15:10:54.431Z,83.30
2019-06-27T15:13:24.443Z,39.08
2019-06-27T15:16:07.426Z,28.47
2019-06-27T15:18:25.940Z,26.75
2019-06-27T15:20:55.876Z,82.12
2019-06-27T15:23:29.003Z,107.12
2019-06-27T15:25:57.491Z,67.92
2019-06-27T15:28:27.395Z,47.05
2019-06-27T15:30:57.459Z,35.05
2019-06-27T15:33:27.460Z,12.50
2019-06-27T15:35:57.420Z,17.92
2019-06-27T15:38:27.299Z,12.20
2019-06-27T15:40:57.195Z,3.40
2019-06-27T15:43:27.083Z,7.47
2019-06-27T15:45:57.087Z,2.08
2019-06-27T15:48:26.959Z,2.75
2019-06-27T15:50:56.920Z,1.30
2019-06-27T15:53:26.806Z,2.90
2019-06-27T15:55:56.808Z,5.85
2019-06-27T15:58:26.816Z,4.47
2019-06-27T16:00:56.810Z,3.92
2019-06-27T16:03:26.754Z,2.22
2019-06-27T16:06:08.648Z,1.65
2019-06-27T16:08:28.290Z,6.58
2019-06-27T16:10:58.166Z,1.47
2019-06-27T16:13:28.079Z,1.32
2019-06-27T16:15:57.960Z,3.30
2019-06-27T16:18:27.843Z,2.25
2019-06-27T16:20:57.736Z,3.10
2019-06-27T16:23:27.630Z,1.77
2019-06-27T16:25:57.514Z,2.60
2019-06-27T16:28:27.552Z,2.52
2019-06-27T16:30:57.479Z,6.03
2019-06-27T16:33:27.368Z,125.82
2019-06-27T16:35:56.865Z,130.45
2019-06-27T16:38:26.815Z,218.40
2019-06-27T16:40:56.738Z,75.55
2019-06-27T16:43:26.712Z,83.58
2019-06-27T16:45:56.702Z,66.55
2019-06-27T16:48:26.605Z,105.00
2019-06-27T16:50:56.583Z,35.40
2019-06-27T16:53:26.481Z,42.17
2019-06-27T16:55:56.590Z,18.00
2019-06-27T16:58:26.512Z,32.15
2019-06-27T17:00:56.545Z,32.90
2019-06-27T17:03:26.538Z,22.35
2019-06-27T17:05:56.519Z,19.05
2019-06-27T17:08:26.388Z,10.18
2019-06-27T17:10:58.654Z,8.63
2019-06-27T17:13:28.019Z,12.23
2019-06-27T17:15:57.971Z,9.83
2019-06-27T17:18:27.965Z,5.45
2019-06-27T17:20:57.959Z,8.18
2019-06-27T17:23:27.855Z,3.10
2019-06-27T17:25:57.814Z,6.42
2019-06-27T17:28:27.683Z,3.95
2019-06-27T17:30:57.584Z,5.17
2019-06-27T17:33:27.475Z,4.97
2019-06-27T17:35:57.372Z,3.87
2019-06-27T17:38:27.336Z,2.62
2019-06-27T17:40:58.095Z,3.60
2019-06-27T17:43:27.963Z,2.52
2019-06-27T17:45:57.903Z,4.78
2019-06-27T17:48:27.791Z,3.65
2019-06-27T17:50:58.510Z,2.20
2019-06-27T17:53:28.413Z,5.47
2019-06-27T17:55:58.423Z,3.47
2019-06-27T17:58:28.304Z,4.50
2019-06-27T18:00:58.209Z,3.42
2019-06-27T18:03:28.083Z,4.00
2019-06-27T18:05:58.312Z,4.92
2019-06-27T18:08:28.330Z,5.10
2019-06-27T18:10:58.301Z,3.85
2019-06-27T18:13:28.206Z,2.75
2019-06-27T18:15:58.244Z,2.50
2019-06-27T18:18:28.153Z,2.72
2019-06-27T18:20:58.085Z,5.80
2019-06-27T18:23:28.060Z,3.25
2019-06-27T18:25:58.240Z,1.80
2019-06-27T18:28:28.115Z,3.83
2019-06-27T18:31:01.378Z,6.58
2019-06-27T18:33:31.264Z,5.37
2019-06-27T18:36:03.116Z,2.52
2019-06-27T18:38:32.822Z,5.65
2019-06-27T18:41:02.741Z,4.40
2019-06-27T18:43:32.763Z,6.37
2019-06-27T18:46:02.846Z,3.20
2019-06-27T18:48:32.721Z,5.65
2019-06-27T18:51:02.586Z,4.45
2019-06-27T18:53:32.506Z,5.87
2019-06-27T18:56:02.396Z,6.00
2019-06-27T18:58:32.278Z,3.90
2019-06-27T19:01:02.172Z,4.22
2019-06-27T19:03:52.056Z,6.28
2019-06-27T19:06:22.001Z,2.45
2019-06-27T19:08:51.893Z,3.33
2019-06-27T19:11:21.839Z,3.25
2019-06-27T19:13:51.720Z,3.30
2019-06-27T19:16:21.619Z,4.85
2019-06-27T19:18:55.990Z,5.45
2019-06-27T19:21:36.347Z,6.53
2019-06-27T19:24:43.536Z,4.35
2019-06-27T19:27:13.428Z,2.58
2019-06-27T19:29:43.371Z,5.40
2019-06-27T19:32:13.255Z,2.85
2019-06-27T19:34:43.219Z,2.70
2019-06-27T19:37:13.167Z,5.78
2019-06-27T19:39:43.067Z,5.53
2019-06-27T19:42:13.047Z,2.77
2019-06-27T19:44:43.019Z,3.70
2019-06-27T19:47:13.123Z,5.90
2019-06-27T19:49:43.267Z,3.50
2019-06-27T19:52:13.312Z,7.95
2019-06-27T19:54:43.290Z,8.15
2019-06-27T19:57:13.251Z,6.67
2019-06-27T19:59:43.239Z,11.70
2019-06-27T20:02:13.206Z,5.90
2019-06-27T20:04:43.090Z,2.08
2019-06-27T20:07:12.982Z,4.00
2019-06-27T20:09:43.081Z,5.72
2019-06-27T20:12:12.950Z,10.30
2019-06-27T20:14:42.851Z,8.23
2019-06-27T20:17:12.724Z,3.00
2019-06-27T20:19:42.618Z,10.78
2019-06-27T20:22:12.516Z,12.82
2019-06-27T20:24:42.390Z,4.12
2019-06-27T20:27:12.384Z,4.85
2019-06-27T20:29:42.247Z,7.08
2019-06-27T20:32:12.246Z,5.60
2019-06-27T20:34:42.155Z,4.12
2019-06-27T20:37:12.069Z,4.67
2019-06-27T20:39:41.983Z,4.50
2019-06-27T20:42:11.919Z,5.95
2019-06-27T20:44:41.811Z,7.28
2019-06-27T20:47:11.679Z,3.52
2019-06-27T20:49:41.552Z,4.50
2019-06-27T20:52:11.466Z,3.62
2019-06-27T20:54:41.355Z,3.83
2019-06-27T20:57:11.297Z,6.85
2019-06-27T20:59:41.207Z,4.90
2019-06-27T21:02:11.170Z,4.78
2019-06-27T21:04:41.061Z,3.30
2019-06-27T21:07:10.951Z,5.40
2019-06-27T21:09:40.855Z,5.05
2019-06-27T21:12:10.731Z,8.73
2019-06-27T21:14:40.604Z,3.37
2019-06-27T21:17:10.527Z,3.30
2019-06-27T21:19:39.976Z,4.12
2019-06-27T21:22:09.295Z,5.33
2019-06-27T21:24:38.678Z,3.45
2019-06-27T21:27:08.042Z,7.87
2019-06-27T21:29:37.359Z,5.22
2019-06-27T21:32:06.689Z,3.15
2019-06-27T21:34:36.024Z,8.68
2019-06-27T21:37:05.524Z,4.25
2019-06-27T21:39:34.872Z,3.95
2019-06-27T21:42:04.480Z,4.45
2019-06-27T21:44:33.849Z,6.72
2019-06-27T21:47:03.173Z,4.97
2019-06-27T21:49:32.486Z,3.45
2019-06-27T21:52:01.862Z,6.12
2019-06-27T21:54:31.251Z,3.77
2019-06-27T21:57:00.998Z,9.15
2019-06-27T21:59:30.413Z,8.23
2019-06-27T22:01:59.832Z,8.30
2019-06-27T22:04:30.597Z,7.75
2019-06-27T22:07:00.051Z,8.68
2019-06-27T22:09:29.445Z,11.57
2019-06-27T22:11:58.880Z,78.00
2019-06-27T22:14:28.260Z,50.70
2019-06-27T22:16:57.788Z,34.05
2019-06-27T22:19:27.283Z,43.08
2019-06-27T22:21:56.838Z,25.80
2019-06-27T22:24:26.216Z,29.92
2019-06-27T22:26:55.619Z,24.72
2019-06-27T22:29:24.980Z,14.20
2019-06-27T22:31:54.581Z,11.05
2019-06-27T22:34:24.039Z,21.62
2019-06-27T22:37:01.442Z,9.63
2019-06-27T22:39:48.897Z,9.93
2019-06-27T22:42:35.972Z,9.68
2019-06-27T22:45:23.576Z,12.23
2019-06-27T22:48:10.652Z,6.92
2019-06-27T22:51:05.604Z,6.30
2019-06-27T22:53:43.547Z,11.18
2019-06-27T22:56:12.931Z,6.33
2019-06-27T22:58:42.315Z,7.47
2019-06-27T23:01:11.773Z,9.78
2019-06-27T23:03:41.116Z,5.70
2019-06-27T23:06:10.559Z,6.20
2019-06-27T23:08:39.990Z,8.63
2019-06-27T23:11:09.403Z,6.72
2019-06-27T23:13:38.755Z,7.20
2019-06-27T23:16:08.094Z,16.62
2019-06-27T23:18:37.458Z,29.98
2019-06-27T23:21:06.765Z,21.93
2019-06-27T23:23:36.105Z,19.55
2019-06-27T23:26:05.459Z,12.55
2019-06-27T23:28:34.747Z,25.37
2019-06-27T23:31:04.067Z,36.25
2019-06-27T23:33:33.487Z,20.43
2019-06-27T23:36:02.823Z,10.35
2019-06-27T23:38:32.152Z,8.78
2019-06-27T23:41:01.473Z,16.02
2019-06-27T23:43:30.839Z,24.98
2019-06-27T23:46:00.182Z,41.73
2019-06-27T23:48:29.527Z,26.23
2019-06-27T23:50:58.884Z,8.33
2019-06-27T23:53:28.206Z,9.70
2019-06-27T23:55:57.571Z,4.75
2019-06-27T23:58:26.991Z,5.00
